sensor_id;sensor_type;location;lat;lon;timestamp;pressure;altitude;pressure_sealevel;temperature;humidity
82784;BME280;72520;55.762;37.780;2024-01-10T00:01:28;98773.88;;;-1.31;73.89
82784;BME280;72520;55.762;37.780;2024-01-10T00:04:30;98769.78;;;-1.38;74.39
82784;BME280;72520;55.762;37.780;2024-01-10T00:07:33;98758.25;;;-1.32;75.00
82784;BME280;72520;55.762;37.780;2024-01-10T00:10:37;98757.38;;;-1.31;75.03
82784;BME280;72520;55.762;37.780;2024-01-10T00:13:39;98748.84;;;-1.36;75.57
82784;BME280;72520;55.762;37.780;2024-01-10T00:16:42;98753.03;;;-1.32;75.00
82784;BME280;72520;55.762;37.780;2024-01-10T00:19:44;98742.88;;;-1.15;74.58
82784;BME280;72520;55.762;37.780;2024-01-10T00:22:48;98740.84;;;-1.07;74.62
82784;BME280;72520;55.762;37.780;2024-01-10T00:25:50;98733.00;;;-1.07;74.76
82784;BME280;72520;55.762;37.780;2024-01-10T00:28:52;98733.63;;;-1.00;74.74
82784;BME280;72520;55.762;37.780;2024-01-10T00:31:55;98743.28;;;-1.02;74.74
82784;BME280;72520;55.762;37.780;2024-01-10T00:35:00;98735.34;;;-0.99;74.79
82784;BME280;72520;55.762;37.780;2024-01-10T00:38:04;98728.88;;;-0.66;74.51
82784;BME280;72520;55.762;37.780;2024-01-10T00:41:06;98737.97;;;-0.76;74.55
82784;BME280;72520;55.762;37.780;2024-01-10T00:44:08;98738.25;;;-0.84;75.17
82784;BME280;72520;55.762;37.780;2024-01-10T00:47:11;98738.09;;;-0.79;75.02
82784;BME280;72520;55.762;37.780;2024-01-10T00:50:13;98750.88;;;-0.72;75.13
82784;BME280;72520;55.762;37.780;2024-01-10T00:53:17;98750.31;;;-0.35;74.33
82784;BME280;72520;55.762;37.780;2024-01-10T00:56:19;98749.59;;;-0.17;73.53
82784;BME280;72520;55.762;37.780;2024-01-10T00:59:26;98741.13;;;-0.02;73.18
82784;BME280;72520;55.762;37.780;2024-01-10T01:02:28;98748.53;;;0.31;72.47
82784;BME280;72520;55.762;37.780;2024-01-10T01:05:30;98740.63;;;0.52;71.69
82784;BME280;72520;55.762;37.780;2024-01-10T01:08:34;98762.41;;;0.33;71.56
82784;BME280;72520;55.762;37.780;2024-01-10T01:11:36;98777.81;;;0.40;71.83
82784;BME280;72520;55.762;37.780;2024-01-10T01:14:38;98783.63;;;0.47;71.42
82784;BME280;72520;55.762;37.780;2024-01-10T01:17:40;98791.63;;;0.64;71.03
82784;BME280;72520;55.762;37.780;2024-01-10T01:20:43;98773.41;;;0.41;72.36
82784;BME280;72520;55.762;37.780;2024-01-10T01:23:47;98773.34;;;0.42;72.53
82784;BME280;72520;55.762;37.780;2024-01-10T01:26:49;98780.97;;;0.27;73.18
82784;BME280;72520;55.762;37.780;2024-01-10T01:29:51;98801.19;;;0.23;73.64
82784;BME280;72520;55.762;37.780;2024-01-10T01:32:53;98798.63;;;0.43;73.39
82784;BME280;72520;55.762;37.780;2024-01-10T01:35:56;98803.84;;;0.43;72.53
82784;BME280;72520;55.762;37.780;2024-01-10T01:39:00;98799.69;;;0.38;73.13
82784;BME280;72520;55.762;37.780;2024-01-10T01:42:02;98817.13;;;0.81;70.59
82784;BME280;72520;55.762;37.780;2024-01-10T01:45:05;98820.13;;;0.92;70.34
82784;BME280;72520;55.762;37.780;2024-01-10T01:48:08;98848.03;;;1.13;69.45
82784;BME280;72520;55.762;37.780;2024-01-10T01:51:11;98853.31;;;0.49;70.26
82784;BME280;72520;55.762;37.780;2024-01-10T01:54:16;98861.91;;;0.31;71.48
82784;BME280;72520;55.762;37.780;2024-01-10T01:57:18;98873.84;;;0.38;70.70
82784;BME280;72520;55.762;37.780;2024-01-10T02:00:21;98879.94;;;0.61;68.95
82784;BME280;72520;55.762;37.780;2024-01-10T02:03:23;98895.56;;;0.62;67.55
82784;BME280;72520;55.762;37.780;2024-01-10T02:06:25;98907.13;;;0.57;66.49
82784;BME280;72520;55.762;37.780;2024-01-10T02:09:29;98902.31;;;0.46;66.74
82784;BME280;72520;55.762;37.780;2024-01-10T02:12:31;98935.34;;;0.04;67.31
82784;BME280;72520;55.762;37.780;2024-01-10T02:15:33;98934.78;;;0.19;66.83
82784;BME280;72520;55.762;37.780;2024-01-10T02:18:56;98950.13;;;0.28;65.37
82784;BME280;72520;55.762;37.780;2024-01-10T02:21:58;98947.88;;;0.19;64.72
82784;BME280;72520;55.762;37.780;2024-01-10T02:25:02;98958.72;;;0.08;65.10
82784;BME280;72520;55.762;37.780;2024-01-10T02:28:05;98968.28;;;0.32;63.99
82784;BME280;72520;55.762;37.780;2024-01-10T02:31:08;98979.09;;;0.00;64.71
82784;BME280;72520;55.762;37.780;2024-01-10T02:34:10;98993.81;;;0.03;64.06
82784;BME280;72520;55.762;37.780;2024-01-10T02:37:12;99000.94;;;-0.01;63.66
82784;BME280;72520;55.762;37.780;2024-01-10T02:40:16;99016.41;;;0.28;62.82
82784;BME280;72520;55.762;37.780;2024-01-10T02:43:19;99030.28;;;-0.18;63.47
82784;BME280;72520;55.762;37.780;2024-01-10T02:46:21;99028.38;;;0.11;62.44
82784;BME280;72520;55.762;37.780;2024-01-10T02:49:23;99048.22;;;-0.07;62.24
82784;BME280;72520;55.762;37.780;2024-01-10T02:52:26;99063.03;;;-0.32;62.99
82784;BME280;72520;55.762;37.780;2024-01-10T02:55:29;99073.63;;;-0.37;63.87
82784;BME280;72520;55.762;37.780;2024-01-10T02:58:31;99084.31;;;-0.43;61.75
82784;BME280;72520;55.762;37.780;2024-01-10T03:01:34;99096.91;;;0.22;61.64
82784;BME280;72520;55.762;37.780;2024-01-10T03:04:36;99108.00;;;0.04;60.39
82784;BME280;72520;55.762;37.780;2024-01-10T03:07:38;99121.66;;;-0.39;60.72
82784;BME280;72520;55.762;37.780;2024-01-10T03:10:42;99128.69;;;0.59;60.34
82784;BME280;72520;55.762;37.780;2024-01-10T03:13:46;99139.09;;;0.13;58.75
82784;BME280;72520;55.762;37.780;2024-01-10T03:16:49;99152.38;;;-0.20;60.05
82784;BME280;72520;55.762;37.780;2024-01-10T03:19:52;99171.81;;;-0.82;61.27
82784;BME280;72520;55.762;37.780;2024-01-10T03:22:54;99200.03;;;-1.26;60.26
82784;BME280;72520;55.762;37.780;2024-01-10T03:25:57;99220.25;;;-0.72;59.63
82784;BME280;72520;55.762;37.780;2024-01-10T03:29:00;99236.28;;;-0.84;58.33
82784;BME280;72520;55.762;37.780;2024-01-10T03:32:02;99250.56;;;-1.96;58.16
82784;BME280;72520;55.762;37.780;2024-01-10T03:35:06;99266.09;;;-2.67;60.64
82784;BME280;72520;55.762;37.780;2024-01-10T03:38:09;99279.78;;;-3.44;59.96
82784;BME280;72520;55.762;37.780;2024-01-10T03:41:14;99302.00;;;-3.76;60.59
82784;BME280;72520;55.762;37.780;2024-01-10T03:44:17;99315.06;;;-3.80;61.69
82784;BME280;72520;55.762;37.780;2024-01-10T03:47:19;99327.72;;;-3.59;61.58
82784;BME280;72520;55.762;37.780;2024-01-10T03:50:21;99330.59;;;-3.77;60.86
82784;BME280;72520;55.762;37.780;2024-01-10T03:53:23;99337.13;;;-4.05;62.40
82784;BME280;72520;55.762;37.780;2024-01-10T03:56:27;99354.41;;;-3.49;61.25
82784;BME280;72520;55.762;37.780;2024-01-10T03:59:29;99361.00;;;-3.27;59.03
82784;BME280;72520;55.762;37.780;2024-01-10T04:02:32;99385.75;;;-3.05;58.61
82784;BME280;72520;55.762;37.780;2024-01-10T04:05:34;99398.94;;;-3.69;58.43
82784;BME280;72520;55.762;37.780;2024-01-10T04:08:36;99414.84;;;-3.89;59.31
82784;BME280;72520;55.762;37.780;2024-01-10T04:11:40;99430.72;;;-4.12;58.63
82784;BME280;72520;55.762;37.780;2024-01-10T04:14:42;99449.56;;;-4.68;59.94
82784;BME280;72520;55.762;37.780;2024-01-10T04:17:45;99457.59;;;-4.90;60.76
82784;BME280;72520;55.762;37.780;2024-01-10T04:20:47;99474.00;;;-4.90;61.54
82784;BME280;72520;55.762;37.780;2024-01-10T04:23:49;99486.59;;;-4.52;60.78
82784;BME280;72520;55.762;37.780;2024-01-10T04:26:54;99502.94;;;-4.39;59.43
82784;BME280;72520;55.762;37.780;2024-01-10T04:29:56;99508.94;;;-4.33;59.74
82784;BME280;72520;55.762;37.780;2024-01-10T04:32:58;99515.41;;;-4.78;60.18
82784;BME280;72520;55.762;37.780;2024-01-10T04:36:01;99532.03;;;-4.97;60.06
82784;BME280;72520;55.762;37.780;2024-01-10T04:39:03;99536.03;;;-4.59;59.99
82784;BME280;72520;55.762;37.780;2024-01-10T04:42:07;99542.06;;;-4.56;59.08
82784;BME280;72520;55.762;37.780;2024-01-10T04:45:09;99560.28;;;-4.65;59.94
82784;BME280;72520;55.762;37.780;2024-01-10T04:48:12;99576.94;;;-4.89;59.01
82784;BME280;72520;55.762;37.780;2024-01-10T04:51:15;99586.28;;;-4.68;58.28
82784;BME280;72520;55.762;37.780;2024-01-10T04:54:17;99578.66;;;-3.98;58.34
82784;BME280;72520;55.762;37.780;2024-01-10T04:57:21;99586.41;;;-4.82;57.31
82784;BME280;72520;55.762;37.780;2024-01-10T05:00:23;99606.50;;;-5.16;59.14
82784;BME280;72520;55.762;37.780;2024-01-10T05:03:26;99611.84;;;-5.41;59.36
82784;BME280;72520;55.762;37.780;2024-01-10T05:06:28;99630.81;;;-5.32;59.36
82784;BME280;72520;55.762;37.780;2024-01-10T05:09:30;99636.09;;;-5.54;59.95
82784;BME280;72520;55.762;37.780;2024-01-10T05:12:34;99637.88;;;-5.70;59.76
82784;BME280;72520;55.762;37.780;2024-01-10T05:15:36;99651.84;;;-6.09;60.91
82784;BME280;72520;55.762;37.780;2024-01-10T05:18:38;99652.72;;;-6.24;61.08
82784;BME280;72520;55.762;37.780;2024-01-10T05:21:41;99682.91;;;-6.60;62.46
82784;BME280;72520;55.762;37.780;2024-01-10T05:24:43;99678.56;;;-5.92;61.84
82784;BME280;72520;55.762;37.780;2024-01-10T05:27:47;99681.16;;;-5.93;60.48
82784;BME280;72520;55.762;37.780;2024-01-10T05:30:49;99691.53;;;-6.39;61.21
82784;BME280;72520;55.762;37.780;2024-01-10T05:33:51;99693.25;;;-6.68;61.33
82784;BME280;72520;55.762;37.780;2024-01-10T05:36:53;99706.19;;;-6.66;61.98
82784;BME280;72520;55.762;37.780;2024-01-10T05:39:56;99723.44;;;-6.72;62.48
82784;BME280;72520;55.762;37.780;2024-01-10T05:42:59;99727.75;;;-6.75;62.80
82784;BME280;72520;55.762;37.780;2024-01-10T05:46:02;99741.50;;;-6.94;63.29
82784;BME280;72520;55.762;37.780;2024-01-10T05:49:05;99744.16;;;-6.59;62.04
82784;BME280;72520;55.762;37.780;2024-01-10T05:52:08;99752.84;;;-6.33;60.40
82784;BME280;72520;55.762;37.780;2024-01-10T05:55:10;99759.69;;;-6.52;60.59
82784;BME280;72520;55.762;37.780;2024-01-10T05:58:14;99766.50;;;-6.89;62.25
82784;BME280;72520;55.762;37.780;2024-01-10T06:01:17;99787.22;;;-6.80;62.14
82784;BME280;72520;55.762;37.780;2024-01-10T06:04:19;99798.44;;;-6.70;61.05
82784;BME280;72520;55.762;37.780;2024-01-10T06:07:21;99810.56;;;-6.63;61.45
82784;BME280;72520;55.762;37.780;2024-01-10T06:10:24;99825.09;;;-6.98;61.93
82784;BME280;72520;55.762;37.780;2024-01-10T06:13:28;99839.69;;;-7.11;61.96
82784;BME280;72520;55.762;37.780;2024-01-10T06:16:30;99843.25;;;-6.86;62.41
82784;BME280;72520;55.762;37.780;2024-01-10T06:19:32;99849.25;;;-6.92;60.46
82784;BME280;72520;55.762;37.780;2024-01-10T06:22:35;99865.69;;;-6.82;59.89
82784;BME280;72520;55.762;37.780;2024-01-10T06:25:37;99866.63;;;-6.68;60.21
82784;BME280;72520;55.762;37.780;2024-01-10T06:28:41;99868.25;;;-6.85;60.50
82784;BME280;72520;55.762;37.780;2024-01-10T06:31:43;99886.16;;;-7.20;60.96
82784;BME280;72520;55.762;37.780;2024-01-10T06:34:46;99891.22;;;-7.38;61.76
82784;BME280;72520;55.762;37.780;2024-01-10T06:37:48;99898.91;;;-7.41;61.35
82784;BME280;72520;55.762;37.780;2024-01-10T06:40:50;99905.97;;;-7.22;61.54
82784;BME280;72520;55.762;37.780;2024-01-10T06:43:54;99914.53;;;-7.28;61.88
82784;BME280;72520;55.762;37.780;2024-01-10T06:46:56;99924.69;;;-7.53;62.20
82784;BME280;72520;55.762;37.780;2024-01-10T06:49:58;99927.41;;;-7.37;61.69
82784;BME280;72520;55.762;37.780;2024-01-10T06:53:01;99929.19;;;-7.30;61.29
82784;BME280;72520;55.762;37.780;2024-01-10T06:56:04;99930.53;;;-7.71;61.29
82784;BME280;72520;55.762;37.780;2024-01-10T06:59:08;99940.00;;;-7.72;62.44
82784;BME280;72520;55.762;37.780;2024-01-10T07:02:10;99941.84;;;-7.60;61.12
82784;BME280;72520;55.762;37.780;2024-01-10T07:05:13;99938.06;;;-6.91;60.00
82784;BME280;72520;55.762;37.780;2024-01-10T07:08:17;99952.31;;;-7.45;60.56
82784;BME280;72520;55.762;37.780;2024-01-10T07:11:20;99955.91;;;-7.28;59.79
82784;BME280;72520;55.762;37.780;2024-01-10T07:14:24;99960.84;;;-7.53;60.17
82784;BME280;72520;55.762;37.780;2024-01-10T07:17:26;99974.38;;;-7.79;60.77
82784;BME280;72520;55.762;37.780;2024-01-10T07:20:28;99979.38;;;-7.94;61.38
82784;BME280;72520;55.762;37.780;2024-01-10T07:23:31;99983.13;;;-7.66;61.20
82784;BME280;72520;55.762;37.780;2024-01-10T07:26:34;99992.59;;;-7.65;60.61
82784;BME280;72520;55.762;37.780;2024-01-10T07:29:38;100001.28;;;-7.60;60.67
82784;BME280;72520;55.762;37.780;2024-01-10T07:32:41;100002.75;;;-7.83;61.33
82784;BME280;72520;55.762;37.780;2024-01-10T07:35:43;100006.91;;;-7.96;61.47
82784;BME280;72520;55.762;37.780;2024-01-10T07:38:45;100017.09;;;-8.08;61.77
82784;BME280;72520;55.762;37.780;2024-01-10T07:41:48;100021.25;;;-8.20;61.85
82784;BME280;72520;55.762;37.780;2024-01-10T07:44:52;100024.59;;;-8.28;62.27
82784;BME280;72520;55.762;37.780;2024-01-10T07:47:55;100027.97;;;-8.35;62.80
82784;BME280;72520;55.762;37.780;2024-01-10T07:50:57;100036.53;;;-8.36;62.24
82784;BME280;72520;55.762;37.780;2024-01-10T07:53:59;100039.88;;;-8.43;62.82
82784;BME280;72520;55.762;37.780;2024-01-10T07:57:01;100033.94;;;-8.40;62.89
82784;BME280;72520;55.762;37.780;2024-01-10T08:00:06;100034.81;;;-8.37;63.27
82784;BME280;72520;55.762;37.780;2024-01-10T08:03:11;100034.94;;;-8.23;63.21
82784;BME280;72520;55.762;37.780;2024-01-10T08:06:14;100038.47;;;-8.18;62.55
82784;BME280;72520;55.762;37.780;2024-01-10T08:09:16;100037.75;;;-8.08;62.57
82784;BME280;72520;55.762;37.780;2024-01-10T08:12:19;100035.28;;;-7.97;61.96
82784;BME280;72520;55.762;37.780;2024-01-10T08:15:24;100037.94;;;-7.93;62.17
82784;BME280;72520;55.762;37.780;2024-01-10T08:18:26;100042.22;;;-7.96;61.83
82784;BME280;72520;55.762;37.780;2024-01-10T08:21:29;100047.31;;;-7.99;61.44
82784;BME280;72520;55.762;37.780;2024-01-10T08:24:32;100053.47;;;-7.88;61.65
82784;BME280;72520;55.762;37.780;2024-01-10T08:27:34;100054.38;;;-7.86;61.88
82784;BME280;72520;55.762;37.780;2024-01-10T08:30:38;100048.25;;;-7.94;62.34
82784;BME280;72520;55.762;37.780;2024-01-10T08:33:43;100045.72;;;-7.88;61.76
82784;BME280;72520;55.762;37.780;2024-01-10T08:36:46;100055.13;;;-7.96;61.51
82784;BME280;72520;55.762;37.780;2024-01-10T08:39:51;100054.44;;;-7.80;61.75
82784;BME280;72520;55.762;37.780;2024-01-10T08:42:54;100058.63;;;-7.90;61.92
82784;BME280;72520;55.762;37.780;2024-01-10T08:45:57;100051.66;;;-7.95;61.24
82784;BME280;72520;55.762;37.780;2024-01-10T08:49:00;100058.50;;;-7.99;61.40
82784;BME280;72520;55.762;37.780;2024-01-10T08:52:02;100062.75;;;-8.02;62.27
82784;BME280;72520;55.762;37.780;2024-01-10T08:55:05;100063.59;;;-8.06;61.87
82784;BME280;72520;55.762;37.780;2024-01-10T08:58:08;100064.53;;;-8.00;61.45
82784;BME280;72520;55.762;37.780;2024-01-10T09:01:12;100065.41;;;-7.98;61.21
82784;BME280;72520;55.762;37.780;2024-01-10T09:04:14;100061.19;;;-7.91;61.55
82784;BME280;72520;55.762;37.780;2024-01-10T09:07:17;100066.69;;;-7.64;61.39
82784;BME280;72520;55.762;37.780;2024-01-10T09:10:20;100069.31;;;-7.58;60.96
82784;BME280;72520;55.762;37.780;2024-01-10T09:13:23;100076.09;;;-7.67;60.95
82784;BME280;72520;55.762;37.780;2024-01-10T09:16:27;100081.34;;;-7.63;61.08
82784;BME280;72520;55.762;37.780;2024-01-10T09:19:29;100090.00;;;-7.59;61.57
82784;BME280;72520;55.762;37.780;2024-01-10T09:22:32;100087.59;;;-7.43;61.63
82784;BME280;72520;55.762;37.780;2024-01-10T09:25:34;100097.00;;;-7.48;61.76
82784;BME280;72520;55.762;37.780;2024-01-10T09:28:36;100091.81;;;-7.52;62.17
82784;BME280;72520;55.762;37.780;2024-01-10T09:31:40;100102.44;;;-7.25;61.56
82784;BME280;72520;55.762;37.780;2024-01-10T09:34:43;100098.16;;;-7.22;61.23
82784;BME280;72520;55.762;37.780;2024-01-10T09:37:46;100099.16;;;-7.06;60.99
82784;BME280;72520;55.762;37.780;2024-01-10T09:40:48;100111.34;;;-6.96;60.51
82784;BME280;72520;55.762;37.780;2024-01-10T09:43:50;100107.78;;;-7.07;60.83
82784;BME280;72520;55.762;37.780;2024-01-10T09:46:55;100111.31;;;-6.99;61.29
82784;BME280;72520;55.762;37.780;2024-01-10T09:49:57;100104.50;;;-6.86;60.65
82784;BME280;72520;55.762;37.780;2024-01-10T09:53:05;100096.91;;;-6.70;60.26
82784;BME280;72520;55.762;37.780;2024-01-10T09:56:11;100095.28;;;-6.55;59.77
82784;BME280;72520;55.762;37.780;2024-01-10T09:59:13;100096.13;;;-6.56;59.96
82784;BME280;72520;55.762;37.780;2024-01-10T10:02:18;100099.53;;;-6.65;60.42
82784;BME280;72520;55.762;37.780;2024-01-10T10:05:22;100090.91;;;-6.65;60.00
82784;BME280;72520;55.762;37.780;2024-01-10T10:08:24;100092.66;;;-6.61;59.88
82784;BME280;72520;55.762;37.780;2024-01-10T10:11:26;100092.63;;;-6.66;60.08
82784;BME280;72520;55.762;37.780;2024-01-10T10:14:29;100095.25;;;-6.61;60.22
82784;BME280;72520;55.762;37.780;2024-01-10T10:17:33;100090.03;;;-6.63;59.63
82784;BME280;72520;55.762;37.780;2024-01-10T10:20:35;100098.59;;;-6.73;60.04
82784;BME280;72520;55.762;37.780;2024-01-10T10:23:39;100098.59;;;-6.73;59.88
82784;BME280;72520;55.762;37.780;2024-01-10T10:26:42;100101.38;;;-6.49;59.47
82784;BME280;72520;55.762;37.780;2024-01-10T10:29:44;100089.22;;;-6.60;59.46
82784;BME280;72520;55.762;37.780;2024-01-10T10:32:48;100107.28;;;-6.65;59.52
82784;BME280;72520;55.762;37.780;2024-01-10T10:35:50;100106.59;;;-6.44;58.68
82784;BME280;72520;55.762;37.780;2024-01-10T10:38:52;100106.63;;;-6.41;58.28
82784;BME280;72520;55.762;37.780;2024-01-10T10:41:54;100101.34;;;-6.52;58.21
82784;BME280;72520;55.762;37.780;2024-01-10T10:45:03;100103.94;;;-6.53;58.34
82784;BME280;72520;55.762;37.780;2024-01-10T10:48:09;100102.84;;;-6.80;58.58
82784;BME280;72520;55.762;37.780;2024-01-10T10:51:15;100106.22;;;-6.87;59.18
82784;BME280;72520;55.762;37.780;2024-01-10T10:54:19;100105.25;;;-7.01;58.87
82784;BME280;72520;55.762;37.780;2024-01-10T10:57:25;100106.94;;;-7.03;59.30
82784;BME280;72520;55.762;37.780;2024-01-10T11:00:28;100114.75;;;-6.97;59.96
82784;BME280;72520;55.762;37.780;2024-01-10T11:03:34;100107.19;;;-6.76;59.79
82784;BME280;72520;55.762;37.780;2024-01-10T11:06:37;100107.25;;;-6.66;59.14
82784;BME280;72520;55.762;37.780;2024-01-10T11:09:40;100101.25;;;-6.67;59.50
82784;BME280;72520;55.762;37.780;2024-01-10T11:12:55;100101.31;;;-6.58;59.45
82784;BME280;72520;55.762;37.780;2024-01-10T11:16:31;100107.22;;;-6.77;59.47
82784;BME280;72520;55.762;37.780;2024-01-10T11:20:01;100107.94;;;-6.90;59.80
82784;BME280;72520;55.762;37.780;2024-01-10T11:23:29;100114.75;;;-6.97;59.74
82784;BME280;72520;55.762;37.780;2024-01-10T11:26:38;100108.75;;;-6.96;60.23
82784;BME280;72520;55.762;37.780;2024-01-10T11:29:40;100107.00;;;-6.98;60.12
82784;BME280;72520;55.762;37.780;2024-01-10T11:32:44;100108.69;;;-7.02;59.97
82784;BME280;72520;55.762;37.780;2024-01-10T11:36:11;100102.56;;;-7.14;60.71
82784;BME280;72520;55.762;37.780;2024-01-10T11:39:14;100109.34;;;-7.21;61.14
82784;BME280;72520;55.762;37.780;2024-01-10T11:42:22;100095.44;;;-7.35;60.55
82784;BME280;72520;55.762;37.780;2024-01-10T11:45:36;100104.09;;;-7.30;60.89
82784;BME280;72520;55.762;37.780;2024-01-10T11:48:38;100105.88;;;-7.26;60.93
82784;BME280;72520;55.762;37.780;2024-01-10T11:51:43;100098.00;;;-7.37;61.21
82784;BME280;72520;55.762;37.780;2024-01-10T11:54:46;100104.84;;;-7.42;60.77
82784;BME280;72520;55.762;37.780;2024-01-10T11:58:07;100108.25;;;-7.46;61.16
82784;BME280;72520;55.762;37.780;2024-01-10T12:01:10;100118.53;;;-7.49;61.53
82784;BME280;72520;55.762;37.780;2024-01-10T12:04:13;100111.69;;;-7.45;61.26
82784;BME280;72520;55.762;37.780;2024-01-10T12:07:18;100116.78;;;-7.53;61.34
82784;BME280;72520;55.762;37.780;2024-01-10T12:10:20;100112.41;;;-7.57;61.19
82784;BME280;72520;55.762;37.780;2024-01-10T12:13:22;100109.72;;;-7.64;61.75
82784;BME280;72520;55.762;37.780;2024-01-10T12:16:25;100116.63;;;-7.62;61.79
82784;BME280;72520;55.762;37.780;2024-01-10T12:19:27;100116.59;;;-7.65;61.85
82784;BME280;72520;55.762;37.780;2024-01-10T12:22:32;100113.19;;;-7.64;61.64
82784;BME280;72520;55.762;37.780;2024-01-10T12:25:34;100111.44;;;-7.66;61.46
82784;BME280;72520;55.762;37.780;2024-01-10T12:28:37;100109.69;;;-7.69;62.17
82784;BME280;72520;55.762;37.780;2024-01-10T12:31:40;100107.00;;;-7.77;62.74
82784;BME280;72520;55.762;37.780;2024-01-10T12:34:45;100106.94;;;-7.83;62.58
82784;BME280;72520;55.762;37.780;2024-01-10T12:37:55;100109.53;;;-7.81;62.11
82784;BME280;72520;55.762;37.780;2024-01-10T12:40:58;100106.97;;;-7.78;62.08
82784;BME280;72520;55.762;37.780;2024-01-10T12:44:01;100093.09;;;-7.89;62.45
82784;BME280;72520;55.762;37.780;2024-01-10T12:47:04;100097.28;;;-7.97;63.16
82784;BME280;72520;55.762;37.780;2024-01-10T12:50:08;100097.19;;;-8.02;63.19
82784;BME280;72520;55.762;37.780;2024-01-10T12:53:12;100104.00;;;-8.08;63.17
82784;BME280;72520;55.762;37.780;2024-01-10T12:56:14;100094.63;;;-8.02;63.46
82784;BME280;72520;55.762;37.780;2024-01-10T12:59:16;100093.72;;;-8.05;63.34
82784;BME280;72520;55.762;37.780;2024-01-10T13:02:19;100088.63;;;-7.99;63.18
82784;BME280;72520;55.762;37.780;2024-01-10T13:05:21;100085.97;;;-8.05;63.83
82784;BME280;72520;55.762;37.780;2024-01-10T13:08:25;100081.75;;;-8.00;63.83
82784;BME280;72520;55.762;37.780;2024-01-10T13:11:27;100079.97;;;-8.04;64.12
82784;BME280;72520;55.762;37.780;2024-01-10T13:14:30;100080.84;;;-8.04;65.00
82784;BME280;72520;55.762;37.780;2024-01-10T13:17:33;100072.28;;;-8.00;64.75
82784;BME280;72520;55.762;37.780;2024-01-10T13:20:35;100074.00;;;-7.99;64.80
82784;BME280;72520;55.762;37.780;2024-01-10T13:23:40;100070.53;;;-7.99;65.57
82784;BME280;72520;55.762;37.780;2024-01-10T13:26:42;100075.00;;;-7.89;64.94
82784;BME280;72520;55.762;37.780;2024-01-10T13:29:45;100075.84;;;-7.90;65.73
82784;BME280;72520;55.762;37.780;2024-01-10T13:32:47;100075.03;;;-7.86;65.24
82784;BME280;72520;55.762;37.780;2024-01-10T13:35:50;100060.38;;;-7.87;65.88
82784;BME280;72520;55.762;37.780;2024-01-10T13:38:53;100049.28;;;-7.80;64.91
82784;BME280;72520;55.762;37.780;2024-01-10T13:41:56;100053.50;;;-7.85;65.18
82784;BME280;72520;55.762;37.780;2024-01-10T13:44:58;100057.03;;;-7.80;65.20
82784;BME280;72520;55.762;37.780;2024-01-10T13:48:00;100052.72;;;-7.80;65.00
82784;BME280;72520;55.762;37.780;2024-01-10T13:51:03;100041.50;;;-7.83;65.42
82784;BME280;72520;55.762;37.780;2024-01-10T13:54:08;100048.53;;;-7.70;65.61
82784;BME280;72520;55.762;37.780;2024-01-10T13:57:10;100047.69;;;-7.69;65.87
82784;BME280;72520;55.762;37.780;2024-01-10T14:00:13;100040.81;;;-7.67;65.31
82784;BME280;72520;55.762;37.780;2024-01-10T14:03:16;100048.66;;;-7.59;65.38
82784;BME280;72520;55.762;37.780;2024-01-10T14:06:18;100042.75;;;-7.45;63.92
82784;BME280;72520;55.762;37.780;2024-01-10T14:09:22;100036.94;;;-7.24;63.96
82784;BME280;72520;55.762;37.780;2024-01-10T14:12:25;100026.59;;;-7.26;62.55
82784;BME280;72520;55.762;37.780;2024-01-10T14:15:27;100016.13;;;-7.38;62.92
82784;BME280;72520;55.762;37.780;2024-01-10T14:18:30;100010.91;;;-7.45;63.17
82784;BME280;72520;55.762;37.780;2024-01-10T14:21:38;100006.50;;;-7.54;63.35
82784;BME280;72520;55.762;37.780;2024-01-10T14:24:46;99991.81;;;-7.59;63.61
82784;BME280;72520;55.762;37.780;2024-01-10T14:27:48;99988.44;;;-7.52;63.36
82784;BME280;72520;55.762;37.780;2024-01-10T14:30:53;99990.16;;;-7.53;62.95
82784;BME280;72520;55.762;37.780;2024-01-10T14:33:56;99984.16;;;-7.49;62.52
82784;BME280;72520;55.762;37.780;2024-01-10T14:36:58;99974.75;;;-7.42;62.52
82784;BME280;72520;55.762;37.780;2024-01-10T14:40:03;99976.47;;;-7.41;62.73
82784;BME280;72520;55.762;37.780;2024-01-10T14:43:07;99980.81;;;-7.39;62.57
82784;BME280;72520;55.762;37.780;2024-01-10T14:46:09;99980.72;;;-7.46;62.85
82784;BME280;72520;55.762;37.780;2024-01-10T14:49:11;99982.41;;;-7.50;63.57
82784;BME280;72520;55.762;37.780;2024-01-10T14:52:14;99974.50;;;-7.66;63.74
82784;BME280;72520;55.762;37.780;2024-01-10T14:55:17;99971.09;;;-7.64;64.03
82784;BME280;72520;55.762;37.780;2024-01-10T14:58:20;99967.56;;;-7.70;64.67
82784;BME280;72520;55.762;37.780;2024-01-10T15:01:22;99964.06;;;-7.77;64.54
82784;BME280;72520;55.762;37.780;2024-01-10T15:04:25;99963.13;;;-7.82;64.83
82784;BME280;72520;55.762;37.780;2024-01-10T15:07:28;99968.34;;;-7.81;63.80
82784;BME280;72520;55.762;37.780;2024-01-10T15:10:32;99959.66;;;-7.87;64.32
82784;BME280;72520;55.762;37.780;2024-01-10T15:13:34;99964.78;;;-7.89;64.63
82784;BME280;72520;55.762;37.780;2024-01-10T15:16:36;99954.44;;;-7.93;64.11
82784;BME280;72520;55.762;37.780;2024-01-10T15:19:39;99951.09;;;-7.82;64.09
82784;BME280;72520;55.762;37.780;2024-01-10T15:22:41;99952.91;;;-7.76;63.87
82784;BME280;72520;55.762;37.780;2024-01-10T15:25:46;99945.88;;;-7.88;64.19
82784;BME280;72520;55.762;37.780;2024-01-10T15:28:48;99950.88;;;-8.04;64.75
82784;BME280;72520;55.762;37.780;2024-01-10T15:31:53;99962.97;;;-8.00;64.01
82784;BME280;72520;55.762;37.780;2024-01-10T15:35:03;99959.47;;;-8.02;64.37
82784;BME280;72520;55.762;37.780;2024-01-10T15:38:05;99960.34;;;-8.03;64.61
82784;BME280;72520;55.762;37.780;2024-01-10T15:41:09;99955.91;;;-8.15;64.68
82784;BME280;72520;55.762;37.780;2024-01-10T15:44:12;99961.09;;;-8.13;65.04
82784;BME280;72520;55.762;37.780;2024-01-10T15:47:14;99955.16;;;-8.05;65.04
82784;BME280;72520;55.762;37.780;2024-01-10T15:50:17;99953.41;;;-8.07;64.76
82784;BME280;72520;55.762;37.780;2024-01-10T15:53:19;99943.94;;;-8.08;65.26
82784;BME280;72520;55.762;37.780;2024-01-10T15:56:24;99950.91;;;-8.01;65.85